Davis Monthan Air Force Base
KDMA : rendu visible

Aérodrome :











RETROUVEZ-NOUS SUR...

 
LOGIN :

S'inscrire | Disclaimer

   EN    FR    IT 

 









Légende :    VFR   VFR Marginal   IFR   IFR Intensif   IFR Très Intensif
Visi : 
Plafond : 
>= 8 km
>= 3000ft
5 à 8 km
1000 à 3000 ft
1500m à 5 km
500 à 1000 ft
800 à 1500m
200 à 500 ft
< 800m
< 200 ft
Symboles :   Orages  Brouillard  Fortes neiges  Fortes précipitations  Vent > 20 kt






- Altitude de l'aérodrome : 2704 ft


KDMA - Davis Monthan Air Force Base

DERNIER METAR :
  • 222258Z AUTO 29004KT 10SM CLR 17/05 A3008 RMK AO2 SLP170 T01650048 $

METARs EXPIRÉS :
  • 222158Z AUTO 00000KT 10SM CLR 16/04 A3008 RMK AO2 SLP170 T01620039 $

TAF TAF KDMA
Valide du 22 à 22h jusqu'au 24 à 04h UTC


222204Z 2222/2404 33007KT 9999 BKN180 QNH3008INS
BECMG 2304/2305 VRB06KT 9999 SCT170 QNH3014INS
BECMG 2311/2312 11007KT 9999 FEW190 BKN260 QNH3012INS
BECMG 2317/2318 VRB06KT 9999 FEW180 BKN210 QNH3007INS TX20/2320Z TN03/2312Z



MET'MAP, la Météo Aéronautique d'un coup d'oeil ! - Copyright ORBIFLY Décembre 2007 - Disclaimer

ORBIFLY MET'MAP TEAM :

Programmation & Développement : Alexandra Zaïnal
Conception & Développement : Baudouin d'Aumeries
Co-Programmation & Développement : Marc-Olivier Méhu
Soutien technique & logistique : Manuel Goepfert

Contact : metmap@orbifly.com




SOURCES & CREDITS :

   NOAA       Earth
Advisory